createdAt,value
2022-10-31T00:01:45.853Z,9.80
2022-10-31T00:04:13.865Z,9.70
2022-10-31T00:06:41.529Z,9.70
2022-10-31T00:09:11.863Z,9.70
2022-10-31T00:11:39.672Z,9.70
2022-10-31T00:14:08.191Z,9.60
2022-10-31T00:16:36.034Z,9.60
2022-10-31T00:19:06.995Z,9.60
2022-10-31T00:21:35.515Z,9.50
2022-10-31T00:24:04.075Z,9.50
2022-10-31T00:26:32.478Z,9.50
2022-10-31T00:29:01.258Z,9.40
2022-10-31T00:31:29.492Z,9.40
2022-10-31T00:33:58.295Z,9.40
2022-10-31T00:36:28.328Z,9.40
2022-10-31T00:38:56.404Z,9.40
2022-10-31T00:41:25.631Z,9.40
2022-10-31T00:43:53.650Z,9.40
2022-10-31T00:46:21.344Z,9.50
2022-10-31T00:48:52.101Z,9.50
2022-10-31T00:51:19.822Z,9.50
2022-10-31T00:53:47.853Z,9.50
2022-10-31T00:56:15.628Z,9.60
2022-10-31T00:58:44.089Z,9.60
2022-10-31T01:01:11.884Z,9.60
2022-10-31T01:03:41.036Z,9.60
2022-10-31T01:06:14.745Z,9.60
2022-10-31T01:08:44.425Z,9.60
2022-10-31T01:11:22.794Z,9.60
2022-10-31T01:13:55.156Z,9.60
2022-10-31T01:16:26.615Z,9.70
2022-10-31T01:18:54.583Z,9.60
2022-10-31T01:21:27.594Z,9.70
2022-10-31T01:23:58.881Z,9.70
2022-10-31T01:26:32.004Z,9.70
2022-10-31T01:29:02.293Z,9.70
2022-10-31T01:31:33.585Z,9.70
2022-10-31T01:34:02.254Z,9.70
2022-10-31T01:36:34.911Z,9.70
2022-10-31T01:39:09.075Z,9.70
2022-10-31T01:41:39.236Z,9.80
2022-10-31T01:44:27.707Z,9.80
2022-10-31T01:47:06.727Z,9.80
2022-10-31T01:49:55.927Z,9.80
2022-10-31T01:52:28.471Z,9.80
2022-10-31T01:55:06.421Z,9.90
2022-10-31T01:57:35.691Z,9.90
2022-10-31T02:00:08.490Z,9.90
2022-10-31T02:02:43.404Z,10.00
2022-10-31T02:05:17.356Z,10.00
2022-10-31T02:07:54.856Z,10.00
2022-10-31T02:10:29.970Z,10.00
2022-10-31T02:13:01.308Z,10.00
2022-10-31T02:15:31.286Z,10.00
2022-10-31T02:17:59.818Z,10.10
2022-10-31T02:20:39.139Z,10.10
2022-10-31T02:23:34.666Z,10.10
2022-10-31T02:26:32.979Z,10.10
2022-10-31T02:29:39.296Z,10.10
2022-10-31T02:32:15.474Z,10.10
2022-10-31T02:34:58.468Z,10.10
2022-10-31T02:37:57.108Z,10.10
2022-10-31T02:40:59.461Z,10.10
2022-10-31T02:43:41.465Z,10.10
2022-10-31T02:46:25.851Z,10.10
2022-10-31T02:48:59.838Z,10.20
2022-10-31T02:51:28.018Z,10.20
2022-10-31T02:53:56.105Z,10.10
2022-10-31T02:56:23.900Z,10.20
2022-10-31T02:59:03.459Z,10.20
2022-10-31T03:02:07.767Z,10.20
2022-10-31T03:04:47.830Z,10.20
2022-10-31T03:07:30.623Z,10.10
2022-10-31T03:09:59.963Z,10.10
2022-10-31T03:12:46.128Z,10.10
2022-10-31T03:15:23.133Z,10.10
2022-10-31T03:18:22.313Z,10.10
2022-10-31T03:20:57.874Z,10.00
2022-10-31T03:23:26.866Z,10.00
2022-10-31T03:25:56.071Z,10.00
2022-10-31T03:28:37.177Z,9.90
2022-10-31T03:31:07.609Z,9.90
2022-10-31T03:33:41.504Z,9.90
2022-10-31T03:36:12.578Z,9.80
2022-10-31T03:38:43.833Z,9.80
2022-10-31T03:41:20.664Z,9.80
2022-10-31T03:43:55.759Z,9.70
2022-10-31T03:46:25.409Z,9.70
2022-10-31T03:48:56.170Z,9.70
2022-10-31T03:51:29.961Z,9.70
2022-10-31T03:54:10.608Z,9.60
2022-10-31T03:57:09.953Z,9.60
2022-10-31T03:59:44.474Z,9.60
2022-10-31T04:02:17.367Z,9.50
2022-10-31T04:04:46.879Z,9.50
2022-10-31T04:07:16.049Z,9.50
2022-10-31T04:09:46.635Z,9.50
2022-10-31T04:12:17.340Z,9.40
2022-10-31T04:15:17.290Z,9.40
2022-10-31T04:17:48.760Z,9.30
2022-10-31T04:20:19.024Z,9.30
2022-10-31T04:22:47.074Z,9.30
2022-10-31T04:25:15.093Z,9.20
2022-10-31T04:27:43.086Z,9.20
2022-10-31T04:30:11.706Z,9.20
2022-10-31T04:32:41.885Z,9.20
2022-10-31T04:35:10.188Z,9.10
2022-10-31T04:37:38.952Z,9.10
2022-10-31T04:40:07.169Z,9.10
2022-10-31T04:43:10.211Z,9.10
2022-10-31T04:45:40.020Z,9.10
2022-10-31T04:48:08.198Z,9.10
2022-10-31T04:50:37.548Z,9.00
2022-10-31T04:53:05.664Z,9.00
2022-10-31T04:55:40.138Z,9.00
2022-10-31T04:58:23.683Z,9.00
2022-10-31T05:00:56.264Z,8.90
2022-10-31T05:03:24.716Z,8.90
2022-10-31T05:05:52.753Z,8.90
2022-10-31T05:08:21.027Z,8.80
2022-10-31T05:10:51.197Z,8.80
2022-10-31T05:13:19.344Z,8.80
2022-10-31T05:16:13.376Z,8.70
2022-10-31T05:18:50.220Z,8.70
2022-10-31T05:21:36.898Z,8.70
2022-10-31T05:24:05.759Z,8.70
2022-10-31T05:26:35.437Z,8.60
2022-10-31T05:29:03.970Z,8.60
2022-10-31T05:31:31.839Z,8.50
2022-10-31T05:34:00.495Z,8.50
2022-10-31T05:36:46.458Z,8.40
2022-10-31T05:39:17.707Z,8.40
2022-10-31T05:41:49.317Z,8.40
2022-10-31T05:44:35.698Z,8.40
2022-10-31T05:47:07.033Z,8.40
2022-10-31T05:49:53.534Z,8.40
2022-10-31T05:52:39.429Z,8.40
2022-10-31T05:55:18.150Z,8.30
2022-10-31T05:58:00.412Z,8.30
2022-10-31T06:00:29.530Z,8.30
2022-10-31T06:05:59.047Z,8.30
2022-10-31T06:08:32.343Z,8.40
2022-10-31T06:11:07.427Z,8.40
2022-10-31T06:13:55.422Z,8.40
2022-10-31T06:16:27.368Z,8.40
2022-10-31T06:18:58.798Z,8.50
2022-10-31T06:21:27.868Z,8.50
2022-10-31T06:23:55.593Z,8.50
2022-10-31T06:26:34.324Z,8.50
2022-10-31T06:29:04.275Z,8.60
2022-10-31T06:31:59.291Z,8.60
2022-10-31T06:34:26.991Z,8.70
2022-10-31T06:36:54.988Z,8.70
2022-10-31T06:39:25.801Z,8.80
2022-10-31T06:41:54.964Z,8.80
2022-10-31T06:44:24.312Z,8.80
2022-10-31T06:47:01.651Z,8.80
2022-10-31T06:49:52.563Z,8.90
2022-10-31T06:52:24.715Z,8.90
2022-10-31T06:54:53.383Z,9.00
2022-10-31T06:57:22.933Z,9.00
2022-10-31T06:59:50.948Z,9.10
2022-10-31T07:02:31.766Z,9.10
2022-10-31T07:04:59.711Z,9.20
2022-10-31T07:07:27.821Z,9.20
2022-10-31T07:09:55.576Z,9.30
2022-10-31T07:12:38.266Z,9.30
2022-10-31T07:15:06.726Z,9.40
2022-10-31T07:17:34.909Z,9.40
2022-10-31T07:20:02.978Z,9.50
2022-10-31T07:22:37.134Z,9.50
2022-10-31T07:25:07.900Z,9.60
2022-10-31T07:27:54.790Z,9.60
2022-10-31T07:30:22.582Z,9.70
2022-10-31T07:32:56.762Z,9.70
2022-10-31T07:35:28.975Z,9.80
2022-10-31T07:38:09.798Z,9.80
2022-10-31T07:40:37.669Z,9.90
2022-10-31T07:43:11.485Z,9.90
2022-10-31T07:45:59.623Z,10.00
2022-10-31T07:48:42.651Z,10.10
2022-10-31T07:51:30.872Z,10.20
2022-10-31T07:54:20.013Z,10.20
2022-10-31T07:56:48.487Z,10.30
2022-10-31T07:59:16.649Z,10.30
2022-10-31T08:01:44.699Z,10.40
2022-10-31T08:04:37.959Z,10.40
2022-10-31T08:07:24.489Z,10.50
2022-10-31T08:09:59.507Z,10.60
2022-10-31T08:12:31.033Z,10.60
2022-10-31T08:14:59.445Z,10.70
2022-10-31T08:17:27.686Z,10.70
2022-10-31T08:19:57.573Z,10.80
2022-10-31T08:22:33.257Z,10.80
2022-10-31T08:25:02.689Z,10.90
2022-10-31T08:27:31.175Z,10.90
2022-10-31T08:30:01.889Z,11.00
2022-10-31T08:32:29.931Z,11.10
2022-10-31T08:35:16.898Z,11.10
2022-10-31T08:38:04.446Z,11.20
2022-10-31T08:40:34.358Z,11.20
2022-10-31T08:43:06.512Z,11.30
2022-10-31T08:45:35.563Z,11.40
2022-10-31T08:48:07.284Z,11.40
2022-10-31T08:50:36.677Z,11.50
2022-10-31T08:53:06.289Z,11.60
2022-10-31T08:55:37.126Z,11.60
2022-10-31T08:58:16.217Z,11.60
2022-10-31T09:00:52.777Z,11.70
2022-10-31T09:03:24.896Z,11.80
2022-10-31T09:06:01.998Z,11.80
2022-10-31T09:08:33.915Z,11.90
2022-10-31T09:11:04.014Z,12.00
2022-10-31T09:14:00.904Z,12.00
2022-10-31T09:16:55.401Z,12.10
2022-10-31T09:19:31.770Z,12.20
2022-10-31T09:21:59.965Z,12.20
2022-10-31T09:24:28.232Z,12.30
2022-10-31T09:26:58.491Z,12.40
2022-10-31T09:29:29.237Z,12.40
2022-10-31T09:32:00.640Z,12.30
2022-10-31T09:34:35.395Z,12.30
2022-10-31T09:37:14.002Z,12.40
2022-10-31T09:39:41.743Z,12.40
2022-10-31T09:42:51.824Z,12.50
2022-10-31T09:45:38.006Z,12.60
2022-10-31T09:48:36.991Z,12.60
2022-10-31T09:51:21.868Z,12.60
2022-10-31T09:54:22.176Z,12.60
2022-10-31T09:56:51.213Z,12.60
2022-10-31T09:59:35.306Z,12.70
2022-10-31T10:02:21.731Z,12.80
2022-10-31T10:05:05.277Z,12.80
2022-10-31T10:07:54.220Z,12.90
2022-10-31T10:10:59.617Z,12.90
2022-10-31T10:14:17.803Z,12.90
2022-10-31T10:17:10.043Z,13.00
2022-10-31T10:20:02.160Z,13.00
2022-10-31T10:22:38.965Z,13.00
2022-10-31T10:25:12.843Z,13.10
2022-10-31T10:27:52.925Z,13.10
2022-10-31T10:30:33.062Z,13.10
2022-10-31T10:33:32.264Z,13.10
2022-10-31T10:36:08.551Z,13.10
2022-10-31T10:39:10.216Z,13.00
2022-10-31T10:41:39.521Z,13.00
2022-10-31T10:44:11.534Z,13.00
2022-10-31T10:46:57.833Z,13.00
2022-10-31T10:49:33.783Z,13.00
2022-10-31T10:55:21.456Z,13.10
2022-10-31T10:57:56.407Z,13.10
2022-10-31T11:00:33.324Z,13.00
2022-10-31T11:03:01.777Z,13.00
2022-10-31T11:05:51.642Z,13.00
2022-10-31T11:08:27.731Z,13.00
2022-10-31T11:11:21.067Z,13.00
2022-10-31T11:13:51.311Z,13.10
2022-10-31T11:16:28.488Z,13.10
2022-10-31T11:19:20.982Z,13.10
2022-10-31T11:21:53.931Z,13.20
2022-10-31T11:24:29.576Z,13.20
2022-10-31T11:27:18.011Z,13.20
2022-10-31T11:29:45.905Z,13.20
2022-10-31T11:32:27.629Z,13.30
2022-10-31T11:35:02.388Z,13.30
2022-10-31T11:37:44.154Z,13.30
2022-10-31T11:40:24.239Z,13.30
2022-10-31T11:42:55.707Z,13.30
2022-10-31T11:45:33.807Z,13.30
2022-10-31T11:48:03.800Z,13.40
2022-10-31T11:50:42.241Z,13.30
2022-10-31T11:53:18.280Z,13.40
2022-10-31T11:55:47.884Z,13.40
2022-10-31T11:58:24.785Z,13.40
2022-10-31T12:00:56.123Z,13.40
2022-10-31T12:03:24.597Z,13.40
2022-10-31T12:06:06.472Z,13.40
2022-10-31T12:08:39.203Z,13.50
2022-10-31T12:11:16.006Z,13.50
2022-10-31T12:14:03.540Z,13.50
2022-10-31T12:17:06.668Z,13.60
2022-10-31T12:19:43.850Z,13.60
2022-10-31T12:22:20.513Z,13.60
2022-10-31T12:25:19.963Z,13.60
2022-10-31T12:28:04.739Z,13.60
2022-10-31T12:30:47.861Z,13.60
2022-10-31T12:33:27.836Z,13.60
2022-10-31T12:36:24.769Z,13.60
2022-10-31T12:39:07.648Z,13.70
2022-10-31T12:41:52.041Z,13.70
2022-10-31T12:44:39.159Z,13.70
2022-10-31T12:47:25.728Z,13.70
2022-10-31T12:50:19.375Z,13.70
2022-10-31T12:53:12.832Z,13.80
2022-10-31T12:55:59.508Z,13.70
2022-10-31T12:58:34.684Z,13.70
2022-10-31T13:01:19.527Z,13.70
2022-10-31T13:04:00.389Z,13.70
2022-10-31T13:06:44.510Z,13.70
2022-10-31T13:09:24.977Z,13.70
2022-10-31T13:12:15.882Z,13.80
2022-10-31T13:14:52.775Z,13.80
2022-10-31T13:17:37.784Z,13.80
2022-10-31T13:20:43.638Z,13.80
2022-10-31T13:23:52.614Z,13.80
2022-10-31T13:26:24.832Z,13.80
2022-10-31T13:29:13.122Z,13.80
2022-10-31T13:31:44.916Z,13.80
2022-10-31T13:34:27.126Z,13.80
2022-10-31T13:37:17.942Z,13.80
2022-10-31T13:40:12.776Z,13.80
2022-10-31T13:42:46.770Z,13.70
2022-10-31T13:45:16.232Z,13.70
2022-10-31T13:47:55.453Z,13.60
2022-10-31T13:50:29.967Z,13.70
2022-10-31T13:53:23.711Z,13.60
2022-10-31T13:56:09.743Z,13.60
2022-10-31T13:58:38.299Z,13.60
2022-10-31T14:01:12.397Z,13.60
2022-10-31T14:06:47.548Z,13.60
2022-10-31T14:09:32.218Z,13.50
2022-10-31T14:12:11.946Z,13.50
2022-10-31T14:14:51.388Z,13.50
2022-10-31T14:17:33.995Z,13.50
2022-10-31T14:20:24.852Z,13.50
2022-10-31T14:22:52.873Z,13.40
2022-10-31T14:25:33.575Z,13.40
2022-10-31T14:28:34.201Z,13.40
2022-10-31T14:31:03.637Z,13.40
2022-10-31T14:33:33.178Z,13.30
2022-10-31T14:36:18.894Z,13.30
2022-10-31T14:39:16.993Z,13.30
2022-10-31T14:41:55.605Z,13.20
2022-10-31T14:44:36.208Z,13.20
2022-10-31T14:47:41.851Z,13.20
2022-10-31T14:50:31.166Z,13.10
2022-10-31T14:53:04.453Z,13.10
2022-10-31T14:55:34.289Z,13.00
2022-10-31T14:58:07.326Z,13.00
2022-10-31T15:00:38.033Z,13.00
2022-10-31T15:03:27.987Z,12.90
2022-10-31T15:06:00.949Z,12.90
2022-10-31T15:08:39.000Z,12.90
2022-10-31T15:11:21.236Z,12.90
2022-10-31T15:13:57.665Z,12.80
2022-10-31T15:16:27.378Z,12.70
2022-10-31T15:19:02.108Z,12.70
2022-10-31T15:21:30.537Z,12.70
2022-10-31T15:24:01.217Z,12.70
2022-10-31T15:26:44.966Z,12.60
2022-10-31T15:29:19.272Z,12.60
2022-10-31T15:32:19.041Z,12.50
2022-10-31T15:34:47.037Z,12.50
2022-10-31T15:37:20.647Z,12.50
2022-10-31T15:39:50.500Z,12.40
2022-10-31T15:42:27.796Z,12.40
2022-10-31T15:45:02.062Z,12.30
2022-10-31T15:47:33.126Z,12.30
2022-10-31T15:50:02.591Z,12.20
2022-10-31T15:52:35.757Z,12.20
2022-10-31T15:55:19.086Z,12.20
2022-10-31T15:57:49.948Z,12.10
2022-10-31T16:00:25.159Z,12.00
2022-10-31T16:03:05.043Z,12.00
2022-10-31T16:05:52.241Z,12.00
2022-10-31T16:08:25.257Z,12.00
2022-10-31T16:10:54.259Z,11.90
2022-10-31T16:13:34.428Z,11.90
2022-10-31T16:16:32.920Z,11.80
2022-10-31T16:18:55.284Z,11.80
2022-10-31T16:21:30.317Z,11.80
2022-10-31T16:24:07.163Z,11.80
2022-10-31T16:26:35.685Z,11.70
2022-10-31T16:29:05.788Z,11.70
2022-10-31T16:31:39.503Z,11.60
2022-10-31T16:34:26.302Z,11.60
2022-10-31T16:36:54.883Z,11.60
2022-10-31T16:39:23.524Z,11.60
2022-10-31T16:41:57.969Z,11.50
2022-10-31T16:44:27.396Z,11.50
2022-10-31T16:47:15.139Z,11.40
2022-10-31T16:49:45.201Z,11.40
2022-10-31T16:52:13.939Z,11.40
2022-10-31T16:54:41.650Z,11.30
2022-10-31T16:57:15.305Z,11.30
2022-10-31T16:59:43.801Z,11.30
2022-10-31T17:02:18.139Z,11.20
2022-10-31T17:04:46.917Z,11.20
2022-10-31T17:07:16.683Z,11.20
2022-10-31T17:09:44.707Z,11.10
2022-10-31T17:12:21.057Z,11.10
2022-10-31T17:14:52.603Z,11.10
2022-10-31T17:17:20.672Z,11.00
2022-10-31T17:19:48.880Z,11.00
2022-10-31T17:22:17.077Z,11.00
2022-10-31T17:24:44.811Z,11.00
2022-10-31T17:27:13.161Z,11.00
2022-10-31T17:29:40.862Z,11.00
2022-10-31T17:32:08.826Z,10.90
2022-10-31T17:34:36.543Z,10.90
2022-10-31T17:37:04.577Z,10.90
2022-10-31T17:39:32.614Z,10.90
2022-10-31T17:42:00.674Z,10.90
2022-10-31T17:44:28.462Z,10.90
2022-10-31T17:46:56.566Z,10.80
2022-10-31T17:49:25.960Z,10.80
2022-10-31T17:52:01.056Z,10.80
2022-10-31T17:54:29.330Z,10.80
2022-10-31T17:56:57.401Z,10.80
2022-10-31T17:59:27.918Z,10.80
2022-10-31T18:01:56.599Z,10.70
2022-10-31T18:04:24.804Z,10.70
2022-10-31T18:06:52.981Z,10.70
2022-10-31T18:09:20.730Z,10.70
2022-10-31T18:11:48.946Z,10.60
2022-10-31T18:14:16.650Z,10.60
2022-10-31T18:16:44.715Z,10.60
2022-10-31T18:19:17.274Z,10.60
2022-10-31T18:21:47.012Z,10.60
2022-10-31T18:24:14.785Z,10.50
2022-10-31T18:26:42.877Z,10.50
2022-10-31T18:29:12.097Z,10.50
2022-10-31T18:31:40.469Z,10.50
2022-10-31T18:34:08.290Z,10.50
2022-10-31T18:36:36.249Z,10.40
2022-10-31T18:39:03.977Z,10.40
2022-10-31T18:41:32.063Z,10.40
2022-10-31T18:44:00.582Z,10.40
2022-10-31T18:46:29.888Z,10.40
2022-10-31T18:48:57.763Z,10.40
2022-10-31T18:51:25.852Z,10.40
2022-10-31T18:53:56.303Z,10.40
2022-10-31T18:56:25.083Z,10.30
2022-10-31T18:58:53.785Z,10.30
2022-10-31T19:01:22.478Z,10.30
2022-10-31T19:03:58.199Z,10.30
2022-10-31T19:06:27.714Z,10.30
2022-10-31T19:09:00.126Z,10.30
2022-10-31T19:11:28.454Z,10.30
2022-10-31T19:13:58.444Z,10.20
2022-10-31T19:16:26.420Z,10.20
2022-10-31T19:18:56.392Z,10.20
2022-10-31T19:21:24.965Z,10.20
2022-10-31T19:23:54.684Z,10.20
2022-10-31T19:26:22.946Z,10.20
2022-10-31T19:28:50.741Z,10.20
2022-10-31T19:31:19.233Z,10.10
2022-10-31T19:33:47.760Z,10.10
2022-10-31T19:36:18.863Z,10.10
2022-10-31T19:38:49.628Z,10.10
2022-10-31T19:41:25.330Z,10.10
2022-10-31T19:43:54.160Z,10.10
2022-10-31T19:46:40.481Z,10.10
2022-10-31T19:49:12.571Z,10.10
2022-10-31T19:51:40.763Z,10.10
2022-10-31T19:54:08.659Z,10.10
2022-10-31T19:56:39.274Z,10.00
2022-10-31T19:59:07.351Z,10.00
2022-10-31T20:01:35.693Z,10.00
2022-10-31T20:04:03.556Z,10.00
2022-10-31T20:06:38.703Z,10.00
2022-10-31T20:09:10.170Z,10.00
2022-10-31T20:11:39.232Z,10.00
2022-10-31T20:14:08.811Z,9.90
2022-10-31T20:16:37.079Z,9.90
2022-10-31T20:19:07.724Z,10.00
2022-10-31T20:21:39.445Z,9.90
2022-10-31T20:24:09.557Z,9.90
2022-10-31T20:26:39.303Z,9.90
2022-10-31T20:29:07.306Z,9.90
2022-10-31T20:31:38.224Z,9.80
2022-10-31T20:34:06.447Z,9.80
2022-10-31T20:36:34.855Z,9.80
2022-10-31T20:39:04.035Z,9.80
2022-10-31T20:41:32.531Z,9.80
2022-10-31T20:44:03.523Z,9.80
2022-10-31T20:46:31.706Z,9.70
2022-10-31T20:48:59.461Z,9.70
2022-10-31T20:51:29.037Z,9.70
2022-10-31T20:53:58.474Z,9.70
2022-10-31T20:56:28.757Z,9.70
2022-10-31T20:58:57.436Z,9.60
2022-10-31T21:01:31.258Z,9.60
2022-10-31T21:03:59.627Z,9.60
2022-10-31T21:06:29.069Z,9.60
2022-10-31T21:08:57.913Z,9.50
2022-10-31T21:11:27.467Z,9.50
2022-10-31T21:13:55.556Z,9.50
2022-10-31T21:16:29.135Z,9.50
2022-10-31T21:18:57.968Z,9.50
2022-10-31T21:21:32.484Z,9.50
2022-10-31T21:24:02.295Z,9.40
2022-10-31T21:26:36.488Z,9.50
2022-10-31T21:29:06.036Z,9.50
2022-10-31T21:31:36.348Z,9.40
2022-10-31T21:34:04.435Z,9.50
2022-10-31T21:36:32.872Z,9.40
2022-10-31T21:39:01.478Z,9.40
2022-10-31T21:41:29.586Z,9.40
2022-10-31T21:43:57.721Z,9.50
2022-10-31T21:46:28.547Z,9.40
2022-10-31T21:48:57.114Z,9.40
2022-10-31T21:51:29.383Z,9.40
2022-10-31T21:54:16.343Z,9.50
2022-10-31T21:56:44.744Z,9.50
2022-10-31T21:59:12.854Z,9.50
2022-10-31T22:01:41.595Z,9.50
2022-10-31T22:04:09.570Z,9.50
2022-10-31T22:06:38.383Z,9.50
2022-10-31T22:09:08.565Z,9.40
2022-10-31T22:11:37.108Z,9.40
2022-10-31T22:14:05.224Z,9.40
2022-10-31T22:16:36.215Z,9.40
2022-10-31T22:19:05.941Z,9.40
2022-10-31T22:21:49.142Z,9.40
2022-10-31T22:24:18.148Z,9.50
2022-10-31T22:26:46.421Z,9.40
2022-10-31T22:29:18.043Z,9.40
2022-10-31T22:31:53.456Z,9.40
2022-10-31T22:34:25.360Z,9.40
2022-10-31T22:36:56.298Z,9.40
2022-10-31T22:39:24.234Z,9.40
2022-10-31T22:41:52.240Z,9.40
2022-10-31T22:44:20.109Z,9.40
2022-10-31T22:46:48.202Z,9.40
2022-10-31T22:49:16.028Z,9.40
2022-10-31T22:51:45.049Z,9.40
2022-10-31T22:54:15.846Z,9.40
2022-10-31T22:56:44.292Z,9.40
2022-10-31T22:59:13.882Z,9.40
2022-10-31T23:01:45.075Z,9.40
2022-10-31T23:04:13.944Z,9.50
2022-10-31T23:06:42.771Z,9.50
2022-10-31T23:09:14.835Z,9.50
2022-10-31T23:11:42.993Z,9.50
2022-10-31T23:14:18.793Z,9.50
2022-10-31T23:16:50.880Z,9.50
2022-10-31T23:19:30.488Z,9.50
2022-10-31T23:22:04.276Z,9.50
2022-10-31T23:25:02.041Z,9.50
2022-10-31T23:27:30.703Z,9.50
2022-10-31T23:29:59.676Z,9.40
2022-10-31T23:32:30.695Z,9.40
2022-10-31T23:35:01.084Z,9.40
2022-10-31T23:37:32.605Z,9.50
2022-10-31T23:40:00.649Z,9.50
2022-10-31T23:42:29.279Z,9.50
2022-10-31T23:44:57.314Z,9.50
2022-10-31T23:47:25.753Z,9.50
2022-10-31T23:49:53.651Z,9.50
2022-10-31T23:52:21.756Z,9.50
2022-10-31T23:54:49.475Z,9.50
2022-10-31T23:57:20.681Z,9.50
2022-10-31T23:59:48.368Z,9.50
